Time;durP1;ratioP1;P1;durP2;ratioP2;P2;SDS_P1;SDS_P2;PMS_P1;PMS_P2;Temp;Humidity;BMP_temperature;BMP_pressure;BME280_temperature;BME280_humidity;BME280_pressure;Samples;Min_cycle;Max_cycle;Signal;HPM_P1;HPM_P2
2022/10/12 00:02:15;;;;;;;13.35;9.35;;;23.80;49.50;;;;;;5011392;28;20054;-62
2022/10/12 00:04:42;;;;;;;12.60;10.13;;;23.70;49.40;;;;;;5011684;28;20192;-62
2022/10/12 00:07:09;;;;;;;11.48;8.82;;;23.80;49.50;;;;;;5010289;28;20510;-62
2022/10/12 00:09:36;;;;;;;11.35;9.38;;;23.70;49.50;;;;;;5011187;28;20413;-62
2022/10/12 00:12:03;;;;;;;9.68;8.63;;;23.70;49.50;;;;;;5011227;28;20403;-62
2022/10/12 00:14:30;;;;;;;11.85;8.90;;;23.70;49.50;;;;;;5011628;28;20433;-62
2022/10/12 00:16:57;;;;;;;13.48;9.05;;;23.70;49.50;;;;;;5009894;28;20056;-62
2022/10/12 00:19:24;;;;;;;11.85;8.77;;;23.70;49.60;;;;;;5011059;28;20646;-61
2022/10/12 00:21:51;;;;;;;10.55;8.90;;;23.70;49.60;;;;;;5009977;28;20050;-62
2022/10/12 00:24:18;;;;;;;10.82;8.57;;;23.70;49.60;;;;;;5005726;28;20061;-62
2022/10/12 00:26:48;;;;;;;9.57;7.82;;;23.70;49.60;;;;;;5010781;28;20046;-62
2022/10/12 00:29:15;;;;;;;11.70;9.70;;;23.70;49.60;;;;;;5011190;28;20437;-63
2022/10/12 00:31:42;;;;;;;9.43;8.07;;;23.70;49.50;;;;;;5009492;28;20136;-63
2022/10/12 00:34:09;;;;;;;10.52;8.63;;;23.70;49.50;;;;;;5010097;28;20301;-62
2022/10/12 00:36:36;;;;;;;11.50;8.80;;;23.70;49.50;;;;;;5010580;28;20366;-62
2022/10/12 00:39:06;;;;;;;10.15;8.43;;;23.70;49.50;;;;;;5010050;28;20048;-62
2022/10/12 00:41:38;;;;;;;9.93;8.88;;;23.70;49.40;;;;;;5010322;28;20357;-62
2022/10/12 00:44:39;;;;;;;11.07;8.82;;;23.70;49.40;;;;;;4991026;28;20050;-62
2022/10/12 00:47:36;;;;;;;10.80;8.45;;;23.70;49.50;;;;;;4990819;28;20042;-62
2022/10/12 00:50:16;;;;;;;10.90;8.57;;;23.70;49.40;;;;;;5008001;28;20046;-62
2022/10/12 00:52:56;;;;;;;10.40;8.20;;;23.70;49.40;;;;;;5010809;28;20430;-62
2022/10/12 00:55:25;;;;;;;10.63;8.90;;;23.70;49.40;;;;;;5006922;28;20060;-62
2022/10/12 00:57:54;;;;;;;10.40;8.45;;;23.70;49.40;;;;;;4991968;28;20045;-62
2022/10/12 01:00:22;;;;;;;10.50;8.32;;;23.70;49.50;;;;;;5009845;28;20048;-62
2022/10/12 01:02:51;;;;;;;9.57;8.18;;;23.70;49.50;;;;;;5009794;28;20486;-62
2022/10/12 01:05:19;;;;;;;12.43;8.57;;;23.70;49.40;;;;;;5009020;28;20053;-61
2022/10/12 01:07:46;;;;;;;12.95;8.52;;;23.70;49.40;;;;;;5010500;28;20306;-62
2022/10/12 01:10:14;;;;;;;10.20;7.93;;;23.70;49.50;;;;;;5010553;28;20053;-62
2022/10/12 01:12:42;;;;;;;10.60;8.57;;;23.70;49.50;;;;;;5010267;28;20046;-62
2022/10/12 01:15:10;;;;;;;10.55;8.52;;;23.70;49.50;;;;;;5009463;28;20050;-62
2022/10/12 01:17:58;;;;;;;9.40;7.57;;;23.70;49.50;;;;;;5009854;28;20057;-62
2022/10/12 01:21:04;;;;;;;11.25;9.00;;;23.70;49.50;;;;;;5009525;28;20054;-62
2022/10/12 01:24:06;;;;;;;9.55;7.88;;;23.70;49.50;;;;;;5009843;28;20481;-62
2022/10/12 01:27:12;;;;;;;9.55;8.30;;;23.70;49.50;;;;;;5007245;28;20128;-61
2022/10/12 01:30:17;;;;;;;9.10;7.70;;;23.70;49.50;;;;;;5008084;28;20092;-62
2022/10/12 01:33:07;;;;;;;9.57;7.90;;;23.70;49.50;;;;;;5009437;28;20042;-62
2022/10/12 01:35:55;;;;;;;9.77;8.38;;;23.70;49.50;;;;;;5010014;28;20053;-62
2022/10/12 01:38:44;;;;;;;8.65;7.40;;;23.60;49.50;;;;;;5009944;28;20387;-62
2022/10/12 01:41:25;;;;;;;9.13;7.53;;;23.60;49.50;;;;;;5009290;28;20482;-61
2022/10/12 01:43:52;;;;;;;9.38;8.43;;;23.60;49.60;;;;;;5008812;28;20466;-62
2022/10/12 01:46:38;;;;;;;9.60;8.25;;;23.60;49.60;;;;;;5009345;28;20054;-62
2022/10/12 01:49:06;;;;;;;9.70;8.15;;;23.60;49.60;;;;;;5008981;28;20050;-62
2022/10/12 01:51:58;;;;;;;10.18;7.53;;;23.60;49.60;;;;;;5009046;28;20049;-62
2022/10/12 01:54:54;;;;;;;9.95;7.03;;;23.60;49.60;;;;;;5009434;28;20049;-62
2022/10/12 01:58:00;;;;;;;11.40;8.70;;;23.60;49.60;;;;;;5009160;28;20057;-62
2022/10/12 02:00:32;;;;;;;10.25;8.35;;;23.60;49.70;;;;;;5003928;28;20081;-62
2022/10/12 02:03:26;;;;;;;10.27;8.32;;;23.60;49.70;;;;;;4988722;28;20458;-62
2022/10/12 02:06:01;;;;;;;9.40;7.93;;;23.60;49.70;;;;;;4989725;28;20125;-62
2022/10/12 02:08:46;;;;;;;10.23;7.78;;;23.60;49.60;;;;;;4989935;28;20412;-62
2022/10/12 02:11:18;;;;;;;9.35;7.32;;;23.60;49.60;;;;;;4989634;28;20058;-62
2022/10/12 02:13:53;;;;;;;8.68;7.32;;;23.60;49.60;;;;;;4989332;28;20046;-62
2022/10/12 02:16:27;;;;;;;8.38;7.40;;;23.60;49.60;;;;;;4989473;28;20050;-62
2022/10/12 02:18:56;;;;;;;10.73;7.50;;;23.60;49.50;;;;;;4988521;28;20125;-62
2022/10/12 02:21:29;;;;;;;8.05;7.25;;;23.60;49.60;;;;;;4988898;28;20429;-62
2022/10/12 02:23:59;;;;;;;8.85;7.45;;;23.60;49.60;;;;;;4989588;28;20072;-62
2022/10/12 02:26:28;;;;;;;8.50;7.60;;;23.60;49.50;;;;;;4989623;28;20051;-61
2022/10/12 02:28:57;;;;;;;7.82;7.03;;;23.60;49.50;;;;;;4989511;28;20072;-61
2022/10/12 02:31:41;;;;;;;7.28;6.55;;;23.60;49.50;;;;;;4991661;28;20050;-62
2022/10/12 02:34:27;;;;;;;8.55;7.13;;;23.60;49.50;;;;;;5006956;28;20038;-62
2022/10/12 02:37:11;;;;;;;8.52;6.43;;;23.60;49.50;;;;;;5008568;28;20045;-62
2022/10/12 02:39:53;;;;;;;7.75;6.82;;;23.60;49.60;;;;;;5008404;28;20399;-62
2022/10/12 02:42:33;;;;;;;8.13;6.65;;;23.60;49.60;;;;;;5007920;28;20060;-62
2022/10/12 02:45:21;;;;;;;;;;;23.60;49.60;;;;;;5008996;28;20054;-62
2022/10/12 02:47:51;;;;;;;10.10;7.57;;;23.60;49.50;;;;;;5008573;28;19932;-62
2022/10/12 02:50:20;;;;;;;9.55;7.60;;;23.60;49.60;;;;;;5009021;28;20172;-62
2022/10/12 02:52:49;;;;;;;10.03;7.00;;;23.50;49.50;;;;;;5008537;28;20045;-62
2022/10/12 02:55:16;;;;;;;8.45;7.10;;;23.60;49.60;;;;;;5008366;28;20050;-62
2022/10/12 02:57:43;;;;;;;8.48;6.72;;;23.50;50.10;;;;;;5008780;28;20041;-62
2022/10/12 03:00:11;;;;;;;7.13;6.35;;;23.50;49.60;;;;;;5008103;28;20056;-62
2022/10/12 03:02:38;;;;;;;9.70;7.50;;;23.50;49.60;;;;;;5008936;28;20054;-62
2022/10/12 03:05:05;;;;;;;6.97;6.13;;;23.50;49.60;;;;;;5002788;28;20054;-61
2022/10/12 03:07:32;;;;;;;6.70;6.03;;;23.50;49.60;;;;;;5009019;28;20046;-62
2022/10/12 03:09:59;;;;;;;7.28;6.57;;;23.50;49.60;;;;;;5008513;28;20049;-62
2022/10/12 03:12:26;;;;;;;7.82;6.93;;;23.50;49.60;;;;;;5008797;28;20061;-62
2022/10/12 03:14:53;;;;;;;10.30;7.13;;;23.50;49.60;;;;;;5008355;28;20497;-62
2022/10/12 03:17:20;;;;;;;7.45;6.68;;;23.50;49.60;;;;;;5008335;28;20080;-62
2022/10/12 03:19:47;;;;;;;7.53;6.25;;;23.50;49.60;;;;;;5008845;28;20100;-62
2022/10/12 03:22:14;;;;;;;7.90;7.03;;;23.50;49.70;;;;;;5008312;28;20054;-62
2022/10/12 03:24:41;;;;;;;7.75;6.50;;;23.50;49.60;;;;;;5007508;28;20046;-62
2022/10/12 03:27:08;;;;;;;6.72;6.00;;;23.50;49.70;;;;;;4995526;28;20395;-62
2022/10/12 03:29:35;;;;;;;8.65;6.68;;;23.50;49.70;;;;;;5003759;28;20417;-62
2022/10/12 03:32:03;;;;;;;10.45;6.95;;;23.50;49.70;;;;;;5007781;28;20434;-62
2022/10/12 03:34:30;;;;;;;7.28;6.18;;;23.50;49.70;;;;;;5007838;28;20050;-62
2022/10/12 03:36:57;;;;;;;8.18;6.65;;;23.50;49.70;;;;;;5003932;28;20053;-62
2022/10/12 03:39:24;;;;;;;8.60;7.05;;;23.50;49.70;;;;;;5008509;28;20052;-62
2022/10/12 03:41:51;;;;;;;7.97;6.25;;;23.50;49.60;;;;;;5007899;28;20042;-62
2022/10/12 03:44:18;;;;;;;7.72;6.65;;;23.50;49.60;;;;;;5008271;28;20045;-62
2022/10/12 03:46:45;;;;;;;7.32;6.55;;;23.50;49.60;;;;;;5011435;28;20239;-62
2022/10/12 03:49:12;;;;;;;7.63;6.82;;;23.50;49.60;;;;;;5017219;28;20057;-62
2022/10/12 03:51:39;;;;;;;10.70;6.25;;;23.50;49.60;;;;;;5014371;28;20522;-62
2022/10/12 03:54:06;;;;;;;7.18;6.30;;;23.50;49.60;;;;;;5016781;28;20046;-62
2022/10/12 03:56:33;;;;;;;6.82;6.00;;;23.50;49.60;;;;;;5013693;28;20719;-62
2022/10/12 03:59:00;;;;;;;6.70;6.10;;;23.50;49.60;;;;;;5009410;28;20038;-62
2022/10/12 04:01:27;;;;;;;6.78;6.05;;;23.50;49.60;;;;;;5012836;28;20056;-62
2022/10/12 04:03:54;;;;;;;8.55;6.75;;;23.40;49.50;;;;;;5011875;28;20046;-62
2022/10/12 04:06:21;;;;;;;8.07;6.70;;;23.40;49.50;;;;;;5042782;28;20509;-62
2022/10/12 04:08:48;;;;;;;7.72;6.50;;;23.40;49.50;;;;;;5010312;28;20699;-62
2022/10/12 04:11:19;;;;;;;6.65;5.82;;;23.40;49.50;;;;;;5007865;28;20494;-65
2022/10/12 04:13:46;;;;;;;8.65;7.55;;;23.40;49.60;;;;;;5011364;28;20045;-62
2022/10/12 04:16:13;;;;;;;7.18;6.15;;;23.40;49.60;;;;;;5011366;28;20046;-62
2022/10/12 04:18:40;;;;;;;7.35;6.63;;;23.40;49.60;;;;;;5011419;28;20049;-62
2022/10/12 04:21:12;;;;;;;9.70;6.20;;;23.40;50.10;;;;;;5010980;28;20061;-62
2022/10/12 04:23:40;;;;;;;6.65;5.88;;;23.40;49.60;;;;;;5010618;28;20050;-62
2022/10/12 04:26:08;;;;;;;8.70;6.63;;;23.40;49.60;;;;;;5010430;28;20056;-62
2022/10/12 04:28:35;;;;;;;6.97;5.88;;;23.40;49.60;;;;;;5011020;28;20050;-62
2022/10/12 04:31:02;;;;;;;6.68;6.07;;;23.40;49.60;;;;;;5042340;28;20046;-62
2022/10/12 04:33:29;;;;;;;7.25;6.50;;;23.40;49.60;;;;;;5011091;28;20050;-61
2022/10/12 04:35:56;;;;;;;7.13;6.43;;;23.40;49.60;;;;;;5007527;28;20529;-62
2022/10/12 04:38:23;;;;;;;7.80;6.28;;;23.40;49.50;;;;;;5008135;28;20042;-62
2022/10/12 04:40:50;;;;;;;7.90;6.95;;;23.40;49.40;;;;;;4988952;28;20123;-62
2022/10/12 04:43:17;;;;;;;6.80;6.10;;;23.40;49.30;;;;;;4988718;28;20053;-62
2022/10/12 04:45:52;;;;;;;8.60;6.43;;;23.40;49.30;;;;;;5016070;28;20406;-62
2022/10/12 04:48:19;;;;;;;6.80;6.10;;;23.40;49.20;;;;;;5015830;28;20057;-62
2022/10/12 04:50:46;;;;;;;6.82;6.13;;;23.40;49.20;;;;;;5018881;28;20041;-62
2022/10/12 04:53:13;;;;;;;9.38;7.43;;;23.40;49.10;;;;;;5019898;28;20525;-62
2022/10/12 04:55:40;;;;;;;7.40;6.60;;;23.40;49.10;;;;;;5017991;28;20046;-62
2022/10/12 04:58:07;;;;;;;8.55;6.55;;;23.30;49.10;;;;;;5018010;28;20057;-62
2022/10/12 05:00:34;;;;;;;6.65;5.95;;;23.30;49.10;;;;;;4999999;28;20046;-62
2022/10/12 05:03:02;;;;;;;8.73;6.28;;;23.40;49.10;;;;;;5007138;28;20092;-62
2022/10/12 05:05:29;;;;;;;7.35;6.63;;;23.30;49.00;;;;;;5012321;28;20042;-62
2022/10/12 05:07:56;;;;;;;9.55;6.97;;;23.30;49.00;;;;;;5008672;28;20053;-62
2022/10/12 05:10:23;;;;;;;8.00;6.95;;;23.30;49.00;;;;;;5011878;28;20037;-62
2022/10/12 05:12:51;;;;;;;6.90;6.15;;;23.30;48.90;;;;;;5007845;28;20057;-61
2022/10/12 05:15:19;;;;;;;7.40;6.57;;;23.30;48.90;;;;;;5006510;28;20056;-62
2022/10/12 05:17:46;;;;;;;6.15;5.55;;;23.30;48.80;;;;;;5010413;28;20053;-61
2022/10/12 05:20:13;;;;;;;7.70;6.70;;;23.30;48.70;;;;;;5010556;28;20053;-59
2022/10/12 05:22:40;;;;;;;8.20;6.97;;;23.30;48.70;;;;;;5007203;28;20060;-59
2022/10/12 05:25:08;;;;;;;8.00;6.68;;;23.30;48.70;;;;;;5005755;28;20066;-59
2022/10/12 05:27:35;;;;;;;7.40;6.45;;;23.20;48.70;;;;;;4999606;28;20058;-59
2022/10/12 05:30:04;;;;;;;9.10;6.88;;;23.20;48.60;;;;;;5002205;28;20042;-59
2022/10/12 05:32:31;;;;;;;8.90;7.22;;;23.20;48.60;;;;;;5004929;28;20050;-60
2022/10/12 05:34:59;;;;;;;9.10;6.43;;;23.20;48.70;;;;;;4997163;28;20046;-59
2022/10/12 05:37:26;;;;;;;6.85;6.15;;;23.20;48.70;;;;;;4997654;28;20049;-60
2022/10/12 05:39:53;;;;;;;6.97;6.10;;;23.20;48.60;;;;;;5001014;28;20041;-60
2022/10/12 05:42:20;;;;;;;9.05;6.35;;;23.30;48.60;;;;;;5001102;28;20050;-60
2022/10/12 05:44:47;;;;;;;7.78;6.78;;;23.20;48.50;;;;;;5002856;28;20054;-60
2022/10/12 05:47:14;;;;;;;8.32;6.35;;;23.30;48.50;;;;;;4999284;28;20394;-60
2022/10/12 05:49:42;;;;;;;10.07;7.10;;;23.30;48.50;;;;;;5001702;28;20504;-62
2022/10/12 05:52:09;;;;;;;6.45;5.82;;;23.30;48.40;;;;;;4996561;28;20046;-62
2022/10/12 05:54:36;;;;;;;9.55;6.88;;;23.30;48.30;;;;;;5004339;28;20060;-64
2022/10/12 05:57:03;;;;;;;11.52;6.90;;;23.30;48.20;;;;;;5004189;28;20049;-64
2022/10/12 05:59:30;;;;;;;10.43;6.72;;;23.30;48.10;;;;;;5003645;28;20054;-63
2022/10/12 06:01:57;;;;;;;7.28;6.57;;;23.30;48.00;;;;;;4998835;28;20501;-61
2022/10/12 06:04:25;;;;;;;9.68;6.80;;;23.30;47.90;;;;;;4997051;28;20494;-60
2022/10/12 06:06:52;;;;;;;7.68;6.70;;;23.40;47.90;;;;;;5003513;28;20490;-62
2022/10/12 06:09:19;;;;;;;8.02;6.75;;;23.40;48.10;;;;;;5003318;28;20524;-62
2022/10/12 06:11:46;;;;;;;11.88;7.10;;;23.40;48.20;;;;;;5004824;28;20060;-62
2022/10/12 06:14:14;;;;;;;10.07;6.80;;;23.40;48.30;;;;;;5000996;28;20556;-61
2022/10/12 06:16:41;;;;;;;7.75;6.40;;;23.40;48.40;;;;;;5006634;28;20050;-62
2022/10/12 06:19:10;;;;;;;10.10;8.00;;;23.50;48.50;;;;;;5002589;28;20136;-62
2022/10/12 06:21:38;;;;;;;7.82;6.35;;;23.50;48.50;;;;;;5000962;28;20050;-63
2022/10/12 06:24:05;;;;;;;8.77;7.20;;;23.60;48.50;;;;;;5002527;28;20050;-62
2022/10/12 06:26:33;;;;;;;11.15;7.57;;;23.60;48.60;;;;;;5000278;28;20046;-61
2022/10/12 06:29:00;;;;;;;8.65;7.25;;;23.70;48.60;;;;;;5007294;28;20436;-62
2022/10/12 06:31:28;;;;;;;11.07;7.10;;;23.70;48.60;;;;;;5001712;28;20038;-61
2022/10/12 06:33:55;;;;;;;10.52;7.50;;;23.80;48.70;;;;;;4997677;28;20861;-61
2022/10/12 06:36:22;;;;;;;9.70;7.50;;;23.80;48.80;;;;;;4997955;28;20049;-61
2022/10/12 06:38:50;;;;;;;11.40;7.53;;;23.90;48.80;;;;;;5000698;28;20045;-61
2022/10/12 06:41:17;;;;;;;10.02;7.80;;;23.90;48.70;;;;;;4999884;28;20060;-63
2022/10/12 06:43:44;;;;;;;7.72;6.68;;;23.90;48.70;;;;;;4998786;28;20140;-62
2022/10/12 06:46:12;;;;;;;8.82;7.30;;;24.00;48.60;;;;;;5000317;28;20050;-62
2022/10/12 06:48:39;;;;;;;11.38;7.07;;;24.00;48.60;;;;;;4999109;28;20421;-62
2022/10/12 06:51:07;;;;;;;10.18;7.53;;;24.00;48.40;;;;;;4995749;28;20085;-62
2022/10/12 06:53:35;;;;;;;12.13;7.50;;;24.10;48.30;;;;;;5004864;28;20140;-61
2022/10/12 06:56:07;;;;;;;11.40;8.75;;;24.10;48.20;;;;;;4998158;28;20050;-61
2022/10/12 06:58:35;;;;;;;12.60;7.80;;;24.10;48.30;;;;;;5000214;28;20050;-58
2022/10/12 07:01:07;;;;;;;11.27;8.35;;;24.20;48.30;;;;;;4997294;28;20051;-60
2022/10/12 07:03:34;;;;;;;11.70;8.48;;;24.20;48.10;;;;;;4999367;28;20665;-60
2022/10/12 07:06:06;;;;;;;12.13;8.82;;;24.20;48.00;;;;;;5000389;28;20504;-60
2022/10/12 07:08:33;;;;;;;12.98;8.40;;;24.30;48.00;;;;;;4999073;28;20127;-59
2022/10/12 07:11:06;;;;;;;11.68;8.25;;;24.30;47.90;;;;;;4997876;28;20060;-60
2022/10/12 07:13:33;;;;;;;10.15;7.85;;;24.30;47.90;;;;;;4994407;28;20054;-59
2022/10/12 07:16:00;;;;;;;9.68;8.23;;;24.40;47.90;;;;;;4998899;28;20478;-59
2022/10/12 07:18:27;;;;;;;10.45;7.43;;;24.40;47.80;;;;;;4999583;28;20049;-60
2022/10/12 07:20:58;;;;;;;19.05;8.50;;;24.40;47.70;;;;;;4998644;28;20140;-63
2022/10/12 07:23:26;;;;;;;10.07;7.38;;;24.40;47.60;;;;;;4994230;28;20049;-59
2022/10/12 07:25:54;;;;;;;12.48;8.23;;;24.40;47.70;;;;;;4999901;28;20056;-60
2022/10/12 07:28:21;;;;;;;8.57;7.38;;;24.50;47.70;;;;;;4999859;28;20050;-62
2022/10/12 07:30:49;;;;;;;14.60;8.85;;;24.50;47.60;;;;;;5003149;28;20057;-62
2022/10/12 07:33:16;;;;;;;16.27;7.95;;;24.50;47.50;;;;;;4998491;28;20071;-60
2022/10/12 07:35:54;;;;;;;13.88;8.43;;;24.50;47.40;;;;;;4999733;28;20042;-60
2022/10/12 07:38:43;;;;;;;8.80;7.65;;;24.60;47.40;;;;;;4996634;28;20041;-60
2022/10/12 07:41:11;;;;;;;11.35;7.68;;;24.60;47.20;;;;;;5001435;28;20057;-58
2022/10/12 07:43:39;;;;;;;12.20;7.72;;;24.60;47.20;;;;;;4997387;28;20068;-59
2022/10/12 07:46:06;;;;;;;12.57;8.32;;;24.70;47.30;;;;;;4999622;28;20050;-59
2022/10/12 07:48:33;;;;;;;17.08;7.90;;;24.70;47.30;;;;;;5000138;28;20121;-59
2022/10/12 07:51:05;;;;;;;11.30;8.05;;;24.70;47.30;;;;;;4996387;28;20068;-59
2022/10/12 07:53:34;;;;;;;16.83;8.15;;;24.70;47.30;;;;;;4998388;28;20050;-60
2022/10/12 07:56:02;;;;;;;12.60;8.18;;;24.70;47.30;;;;;;4998750;28;20128;-60
2022/10/12 07:58:30;;;;;;;10.93;7.75;;;24.80;47.30;;;;;;5001281;28;20494;-61
2022/10/12 08:01:07;;;;;;;10.00;8.15;;;24.80;47.70;;;;;;5000172;28;20039;-61
2022/10/12 08:03:35;;;;;;;12.10;8.30;;;24.80;47.10;;;;;;5001584;28;20057;-59
2022/10/12 08:06:10;;;;;;;12.07;7.72;;;24.80;47.00;;;;;;5002438;28;20046;-59
2022/10/12 08:08:38;;;;;;;12.07;8.40;;;24.80;47.00;;;;;;5001856;28;20061;-60
2022/10/12 08:11:06;;;;;;;10.32;8.15;;;24.90;47.00;;;;;;4999936;28;20510;-58
2022/10/12 08:13:34;;;;;;;12.98;7.93;;;24.90;47.00;;;;;;5002527;28;20088;-59
2022/10/12 08:16:04;;;;;;;10.40;8.23;;;24.90;47.00;;;;;;4998692;28;20054;-63
2022/10/12 08:19:20;;;;;;;10.70;8.00;;;24.90;47.00;;;;;;5010335;28;20516;-58
2022/10/12 08:29:24;;;;;;;14.52;8.05;;;25.10;46.80;;;;;;5018789;28;20056;-58
2022/10/12 08:31:51;;;;;;;;;;;25.10;46.80;;;;;;5019434;28;20054;-61
2022/10/12 08:34:19;;;;;;;11.18;8.32;;;25.10;46.70;;;;;;5018155;28;19928;-61
2022/10/12 08:36:46;;;;;;;9.10;8.02;;;25.20;46.80;;;;;;5018085;28;20053;-60
2022/10/12 08:39:15;;;;;;;9.52;7.95;;;25.20;46.70;;;;;;5018061;28;20058;-62
2022/10/12 08:41:59;;;;;;;12.07;8.57;;;25.20;46.60;;;;;;5018845;28;20124;-60
2022/10/12 08:45:39;;;;;;;11.07;8.30;;;25.30;46.60;;;;;;5013928;28;20058;-60
2022/10/12 08:51:48;;;;;;;14.52;7.85;;;25.40;46.50;;;;;;5741142;23;20050;-60
2022/10/12 08:54:21;;;;;;;11.75;8.93;;;25.40;46.50;;;;;;4998138;28;20414;-60
2022/10/12 08:56:50;;;;;;;9.45;7.30;;;25.40;46.40;;;;;;4997238;28;20050;-61
2022/10/12 08:59:18;;;;;;;10.27;8.03;;;25.40;46.40;;;;;;4998209;28;20494;-65
2022/10/12 09:02:18;;;;;;;10.80;8.27;;;25.50;46.20;;;;;;4997972;28;20125;-62
2022/10/12 09:05:06;;;;;;;9.57;8.02;;;25.60;46.30;;;;;;4998425;28;20418;-60
2022/10/12 09:07:45;;;;;;;9.85;7.72;;;25.60;46.30;;;;;;4998254;28;20057;-61
2022/10/12 09:10:38;;;;;;;9.70;7.53;;;25.60;46.10;;;;;;4996745;28;20054;-65
2022/10/12 09:13:45;;;;;;;10.60;8.10;;;25.70;46.00;;;;;;4997896;28;20132;-63
2022/10/12 09:16:27;;;;;;;10.55;8.52;;;25.70;45.90;;;;;;4998183;28;20505;-65
2022/10/12 09:22:47;;;;;;;11.93;8.25;;;25.80;45.90;;;;;;4997478;28;20455;-61
2022/10/12 09:25:15;;;;;;;15.73;8.55;;;25.80;45.80;;;;;;4997759;28;20059;-64
2022/10/12 09:27:45;;;;;;;12.40;8.40;;;25.80;45.80;;;;;;4997741;28;20046;-60
2022/10/12 09:30:15;;;;;;;21.58;8.75;;;25.90;45.80;;;;;;4995611;28;20054;-60
2022/10/12 09:33:11;;;;;;;12.63;9.02;;;25.90;45.80;;;;;;4997545;28;20050;-61
2022/10/12 09:35:40;;;;;;;10.80;8.07;;;25.90;45.90;;;;;;4997174;28;20052;-60
2022/10/12 09:38:09;;;;;;;11.05;8.52;;;25.90;45.70;;;;;;4997814;28;20061;-61
2022/10/12 09:40:37;;;;;;;8.45;7.55;;;26.00;45.80;;;;;;4997266;28;20046;-60
2022/10/12 09:43:07;;;;;;;8.93;7.77;;;26.00;45.70;;;;;;4997250;28;20046;-62
2022/10/12 09:45:35;;;;;;;9.38;7.93;;;26.00;45.80;;;;;;4997614;28;20058;-62
2022/10/12 09:48:18;;;;;;;10.93;7.35;;;26.00;45.80;;;;;;4998071;28;20050;-61
2022/10/12 09:50:58;;;;;;;11.05;7.95;;;26.10;45.80;;;;;;4996813;28;20487;-62
2022/10/12 09:53:41;;;;;;;9.55;7.43;;;26.10;45.80;;;;;;4995887;28;20406;-62
2022/10/12 09:56:21;;;;;;;11.88;8.15;;;26.10;45.70;;;;;;4997891;28;20062;-62
2022/10/12 09:58:52;;;;;;;8.93;7.75;;;26.10;45.70;;;;;;4996572;28;20038;-61
2022/10/12 10:01:26;;;;;;;12.40;8.05;;;26.10;45.70;;;;;;4997104;28;20069;-66
2022/10/12 10:04:15;;;;;;;10.20;7.80;;;26.10;45.60;;;;;;4996828;28;20112;-62
2022/10/12 10:06:44;;;;;;;9.20;7.70;;;26.10;45.60;;;;;;4996505;28;20058;-62
2022/10/12 10:09:33;;;;;;;12.07;8.32;;;26.20;45.60;;;;;;4996607;28;20438;-61
2022/10/12 10:12:25;;;;;;;13.75;8.73;;;26.10;45.40;;;;;;4967755;28;20058;-62
2022/10/12 10:14:55;;;;;;;11.95;9.02;;;26.20;45.40;;;;;;4969216;28;20049;-61
2022/10/12 10:21:05;;;;;;;10.65;8.20;;;26.20;45.20;;;;;;5027141;23;20502;-62
2022/10/12 10:26:52;;;;;;;9.68;7.65;;;26.20;45.00;;;;;;5205448;23;20050;-66
2022/10/12 10:33:33;;;;;;;10.35;8.60;;;26.20;45.00;;;;;;4983577;28;20046;-62
2022/10/12 10:40:33;;;;;;;13.07;8.40;;;26.10;44.00;;;;;;4989183;28;20149;-66
2022/10/12 10:43:07;;;;;;;14.88;7.80;;;26.10;43.90;;;;;;4994883;28;20057;-62
2022/10/12 10:45:43;;;;;;;12.57;9.00;;;26.00;43.90;;;;;;4995763;28;20046;-62
2022/10/12 10:48:18;;;;;;;11.68;9.15;;;26.00;44.60;;;;;;4996027;28;20065;-62
2022/10/12 10:51:02;;;;;;;9.35;8.32;;;26.00;44.20;;;;;;4996338;28;20050;-62
2022/10/12 10:53:46;;;;;;;8.45;7.25;;;26.00;44.40;;;;;;4992954;28;20150;-62
2022/10/12 10:56:23;;;;;;;14.70;8.98;;;26.00;44.70;;;;;;4994885;28;20050;-62
2022/10/12 10:59:10;;;;;;;8.27;7.13;;;26.00;44.50;;;;;;4999207;28;20054;-61
2022/10/12 11:01:53;;;;;;;9.68;7.68;;;26.00;44.90;;;;;;4995293;28;20061;-62
2022/10/12 11:04:36;;;;;;;8.45;7.53;;;26.00;45.10;;;;;;4999652;28;20050;-62
2022/10/12 11:07:15;;;;;;;11.38;8.98;;;26.00;45.10;;;;;;4999559;28;20057;-62
2022/10/12 11:10:34;;;;;;;10.57;7.88;;;26.00;44.80;;;;;;4997968;28;20042;-62
2022/10/12 11:14:54;;;;;;;11.50;7.57;;;26.00;44.90;;;;;;4985614;28;20054;-66
2022/10/12 11:21:01;;;;;;;9.20;7.47;;;26.10;45.20;;;;;;5096777;23;20073;-62
2022/10/12 11:23:52;;;;;;;8.68;7.72;;;26.10;45.30;;;;;;5000774;28;20054;-66
2022/10/12 11:26:37;;;;;;;14.63;8.40;;;26.10;45.20;;;;;;5000299;28;20501;-63
2022/10/12 11:29:05;;;;;;;8.35;7.00;;;26.10;45.10;;;;;;5000414;28;20054;-62
2022/10/12 11:31:36;;;;;;;12.60;7.70;;;26.10;45.10;;;;;;5000346;28;20058;-63
2022/10/12 11:34:12;;;;;;;9.43;7.15;;;26.20;45.10;;;;;;5015226;28;20054;-62
2022/10/12 11:36:44;;;;;;;9.93;7.80;;;26.20;45.00;;;;;;5000480;28;20089;-61
2022/10/12 11:39:37;;;;;;;9.63;7.13;;;26.20;45.00;;;;;;5000185;28;20042;-66
2022/10/12 11:42:10;;;;;;;10.10;7.22;;;26.30;45.00;;;;;;5000094;28;20069;-61
2022/10/12 11:44:53;;;;;;;12.52;7.93;;;26.30;45.00;;;;;;5000403;28;20481;-62
2022/10/12 11:47:42;;;;;;;17.70;6.95;;;26.30;45.10;;;;;;4999889;28;20054;-62
2022/10/12 11:50:34;;;;;;;10.93;7.60;;;26.30;45.10;;;;;;4999981;28;20054;-62
2022/10/12 11:53:05;;;;;;;10.52;7.80;;;26.40;45.00;;;;;;5000045;28;20053;-65
2022/10/12 11:56:11;;;;;;;12.48;7.95;;;26.40;45.00;;;;;;4999631;28;20507;-65
2022/10/12 11:58:41;;;;;;;10.40;7.03;;;26.40;45.00;;;;;;5012156;28;20057;-66
2022/10/12 12:01:46;;;;;;;10.70;7.18;;;26.40;45.00;;;;;;5012281;28;20482;-62
2022/10/12 12:04:34;;;;;;;9.05;7.15;;;26.40;44.90;;;;;;4999515;28;20061;-60
2022/10/12 12:07:41;;;;;;;12.55;7.85;;;26.40;44.90;;;;;;4999534;28;20062;-61
2022/10/12 12:10:47;;;;;;;8.30;7.00;;;26.40;44.90;;;;;;5010243;28;20050;-61
2022/10/12 12:13:21;;;;;;;14.00;6.97;;;26.40;45.00;;;;;;5008949;28;20208;-61
2022/10/12 12:16:25;;;;;;;11.77;7.55;;;26.40;45.00;;;;;;4998176;28;20085;-65
2022/10/12 12:19:12;;;;;;;12.98;7.15;;;26.40;45.00;;;;;;5009629;28;20054;-62
2022/10/12 12:22:19;;;;;;;8.70;7.07;;;26.40;45.00;;;;;;4999216;28;20050;-62
2022/10/12 12:25:14;;;;;;;11.15;8.18;;;26.50;45.10;;;;;;5011744;28;20050;-62
2022/10/12 12:27:57;;;;;;;10.77;7.15;;;26.50;45.10;;;;;;4999287;28;20058;-61
2022/10/12 12:30:38;;;;;;;9.30;7.05;;;26.50;45.00;;;;;;4999943;28;20058;-60
2022/10/12 12:33:29;;;;;;;7.53;6.60;;;26.50;45.00;;;;;;4998823;28;20061;-61
2022/10/12 12:36:00;;;;;;;11.15;6.93;;;26.50;45.00;;;;;;4999287;28;20049;-62
2022/10/12 12:38:37;;;;;;;8.00;6.90;;;26.50;44.90;;;;;;4999028;28;20382;-62
2022/10/12 12:41:09;;;;;;;8.80;6.95;;;26.50;44.90;;;;;;4999300;28;20426;-61
2022/10/12 12:43:50;;;;;;;8.60;7.05;;;26.50;45.40;;;;;;4998985;28;20057;-64
2022/10/12 12:46:17;;;;;;;10.35;6.88;;;26.50;44.80;;;;;;4996841;28;20524;-64
2022/10/12 12:55:13;;;;;;;9.98;7.45;;;26.60;44.80;;;;;;5651734;23;20433;-62
2022/10/12 12:58:09;;;;;;;8.32;6.97;;;26.60;44.80;;;;;;4959523;29;20051;-64
2022/10/12 13:01:39;;;;;;;10.68;6.93;;;26.60;44.70;;;;;;4935735;29;20483;-62
2022/10/12 13:04:44;;;;;;;9.90;7.45;;;26.60;44.70;;;;;;4924149;29;20075;-65
2022/10/12 13:07:46;;;;;;;7.70;6.85;;;26.60;44.60;;;;;;4921381;29;20149;-61
2022/10/12 13:10:49;;;;;;;8.65;6.60;;;26.60;44.60;;;;;;4921661;29;20067;-61
2022/10/12 13:13:34;;;;;;;9.13;6.80;;;26.60;44.50;;;;;;4904420;29;20051;-62
2022/10/12 13:16:43;;;;;;;8.90;6.78;;;26.60;44.40;;;;;;4920961;29;20131;-62
2022/10/12 13:19:36;;;;;;;12.23;6.82;;;26.60;44.60;;;;;;4921214;29;20453;-62
2022/10/12 13:22:12;;;;;;;11.32;7.20;;;26.60;44.70;;;;;;4921231;29;20052;-63
2022/10/12 13:24:52;;;;;;;8.77;6.93;;;26.60;44.70;;;;;;4921117;29;20059;-64
2022/10/12 13:30:05;;;;;;;10.48;6.72;;;26.60;44.70;;;;;;6134329;23;20010;-61
2022/10/12 13:32:58;;;;;;;10.07;6.80;;;26.60;44.80;;;;;;4993607;28;20060;-62
2022/10/12 13:35:34;;;;;;;9.85;6.65;;;26.50;44.80;;;;;;4997492;28;20042;-61
2022/10/12 13:38:21;;;;;;;7.97;6.75;;;26.50;45.40;;;;;;4997768;28;20471;-61
2022/10/12 13:41:01;;;;;;;7.90;7.00;;;26.50;44.80;;;;;;5012580;28;20115;-65
2022/10/12 13:44:02;;;;;;;12.93;6.80;;;26.60;44.90;;;;;;4996837;28;20049;-62
2022/10/12 13:50:18;;;;;;;12.32;8.35;;;26.50;44.80;;;;;;4970848;28;20045;-66
2022/10/12 13:56:38;;;;;;;8.35;7.22;;;26.50;44.80;;;;;;4977861;28;20126;-61
2022/10/12 13:59:12;;;;;;;10.95;7.70;;;26.50;44.70;;;;;;4977777;28;20547;-61
2022/10/12 14:01:53;;;;;;;12.55;7.22;;;26.50;44.70;;;;;;4976126;28;20051;-60
2022/10/12 14:04:21;;;;;;;9.50;6.80;;;26.50;44.70;;;;;;4992763;28;20054;-65
2022/10/12 14:07:10;;;;;;;10.10;6.63;;;26.60;44.70;;;;;;4977756;28;20086;-61
2022/10/12 14:09:46;;;;;;;10.15;6.85;;;26.50;44.60;;;;;;4977499;28;20054;-62
2022/10/12 14:12:15;;;;;;;9.63;7.78;;;26.60;44.80;;;;;;4977462;28;20057;-62
2022/10/12 14:14:44;;;;;;;10.20;6.82;;;26.50;44.80;;;;;;4976196;28;20058;-62
2022/10/12 14:17:16;;;;;;;8.77;6.97;;;26.60;44.80;;;;;;4977675;28;20051;-65